sensor_id;sensor_type;location;lat;lon;timestamp;temperature;humidity
8611;DHT22;4343;53.648;10.098;2023-06-22T00:00:58;18.40;99.90
8611;DHT22;4343;53.648;10.098;2023-06-22T00:03:25;18.30;99.90
8611;DHT22;4343;53.648;10.098;2023-06-22T00:05:51;18.30;99.90
8611;DHT22;4343;53.648;10.098;2023-06-22T00:08:17;18.20;99.90
8611;DHT22;4343;53.648;10.098;2023-06-22T00:10:44;18.20;99.90
8611;DHT22;4343;53.648;10.098;2023-06-22T00:13:11;18.20;99.90
8611;DHT22;4343;53.648;10.098;2023-06-22T00:15:38;18.20;99.90
8611;DHT22;4343;53.648;10.098;2023-06-22T00:18:05;18.10;99.90
8611;DHT22;4343;53.648;10.098;2023-06-22T00:20:31;18.10;99.90
8611;DHT22;4343;53.648;10.098;2023-06-22T00:22:58;18.10;99.90
8611;DHT22;4343;53.648;10.098;2023-06-22T00:25:24;18.10;99.90
8611;DHT22;4343;53.648;10.098;2023-06-22T00:27:50;18.00;99.90
8611;DHT22;4343;53.648;10.098;2023-06-22T00:30:16;18.00;99.90
8611;DHT22;4343;53.648;10.098;2023-06-22T00:32:42;18.00;99.90
8611;DHT22;4343;53.648;10.098;2023-06-22T00:35:08;18.00;99.90
8611;DHT22;4343;53.648;10.098;2023-06-22T00:37:35;17.90;99.90
8611;DHT22;4343;53.648;10.098;2023-06-22T00:40:02;18.00;99.90
8611;DHT22;4343;53.648;10.098;2023-06-22T00:42:29;17.90;99.90
8611;DHT22;4343;53.648;10.098;2023-06-22T00:44:54;17.90;99.90
8611;DHT22;4343;53.648;10.098;2023-06-22T00:47:20;17.90;99.90
8611;DHT22;4343;53.648;10.098;2023-06-22T00:49:48;17.90;99.90
8611;DHT22;4343;53.648;10.098;2023-06-22T00:52:16;17.90;99.90
8611;DHT22;4343;53.648;10.098;2023-06-22T00:54:47;17.90;99.90
8611;DHT22;4343;53.648;10.098;2023-06-22T00:57:14;17.90;99.90
8611;DHT22;4343;53.648;10.098;2023-06-22T00:59:45;17.80;99.90
8611;DHT22;4343;53.648;10.098;2023-06-22T01:02:11;17.80;99.90
8611;DHT22;4343;53.648;10.098;2023-06-22T01:04:38;17.90;99.90
8611;DHT22;4343;53.648;10.098;2023-06-22T01:07:31;17.80;99.90
8611;DHT22;4343;53.648;10.098;2023-06-22T01:10:19;17.80;99.90
8611;DHT22;4343;53.648;10.098;2023-06-22T01:12:57;17.80;99.90
8611;DHT22;4343;53.648;10.098;2023-06-22T01:17:56;17.80;99.90
8611;DHT22;4343;53.648;10.098;2023-06-22T01:20:23;17.80;99.90
8611;DHT22;4343;53.648;10.098;2023-06-22T01:25:31;17.80;99.90
8611;DHT22;4343;53.648;10.098;2023-06-22T01:30:57;17.80;99.90
8611;DHT22;4343;53.648;10.098;2023-06-22T01:33:37;17.80;99.90
8611;DHT22;4343;53.648;10.098;2023-06-22T01:36:03;17.70;99.90
8611;DHT22;4343;53.648;10.098;2023-06-22T01:38:29;17.70;99.90
8611;DHT22;4343;53.648;10.098;2023-06-22T01:40:56;17.70;99.90
8611;DHT22;4343;53.648;10.098;2023-06-22T01:43:25;17.70;99.90
8611;DHT22;4343;53.648;10.098;2023-06-22T01:45:51;17.70;99.90
8611;DHT22;4343;53.648;10.098;2023-06-22T01:48:17;17.70;99.90
8611;DHT22;4343;53.648;10.098;2023-06-22T01:50:43;17.70;99.90
8611;DHT22;4343;53.648;10.098;2023-06-22T01:53:09;17.60;99.90
8611;DHT22;4343;53.648;10.098;2023-06-22T01:55:34;17.70;99.90
8611;DHT22;4343;53.648;10.098;2023-06-22T01:58:00;17.70;99.90
8611;DHT22;4343;53.648;10.098;2023-06-22T02:00:28;17.60;99.90
8611;DHT22;4343;53.648;10.098;2023-06-22T02:03:01;17.60;99.90
8611;DHT22;4343;53.648;10.098;2023-06-22T02:05:33;17.60;99.90
8611;DHT22;4343;53.648;10.098;2023-06-22T02:08:19;17.60;99.90
8611;DHT22;4343;53.648;10.098;2023-06-22T02:10:47;17.60;99.90
8611;DHT22;4343;53.648;10.098;2023-06-22T02:13:14;17.60;99.90
8611;DHT22;4343;53.648;10.098;2023-06-22T02:15:41;17.50;99.90
8611;DHT22;4343;53.648;10.098;2023-06-22T02:18:07;17.50;99.90
8611;DHT22;4343;53.648;10.098;2023-06-22T02:20:32;17.50;99.90
8611;DHT22;4343;53.648;10.098;2023-06-22T02:23:01;17.50;99.90
8611;DHT22;4343;53.648;10.098;2023-06-22T02:25:26;17.50;99.90
8611;DHT22;4343;53.648;10.098;2023-06-22T02:27:52;17.50;99.90
8611;DHT22;4343;53.648;10.098;2023-06-22T02:30:18;17.50;99.90
8611;DHT22;4343;53.648;10.098;2023-06-22T02:32:43;17.40;99.90
8611;DHT22;4343;53.648;10.098;2023-06-22T02:35:09;17.50;99.90
8611;DHT22;4343;53.648;10.098;2023-06-22T02:37:36;17.40;99.90
8611;DHT22;4343;53.648;10.098;2023-06-22T02:40:07;17.40;99.90
8611;DHT22;4343;53.648;10.098;2023-06-22T02:42:34;17.40;99.90
8611;DHT22;4343;53.648;10.098;2023-06-22T02:45:00;17.40;99.90
8611;DHT22;4343;53.648;10.098;2023-06-22T02:47:26;17.30;99.90
8611;DHT22;4343;53.648;10.098;2023-06-22T02:49:51;17.30;99.90
8611;DHT22;4343;53.648;10.098;2023-06-22T02:52:17;17.30;99.90
8611;DHT22;4343;53.648;10.098;2023-06-22T02:54:42;17.30;99.90
8611;DHT22;4343;53.648;10.098;2023-06-22T02:57:10;17.30;99.90
8611;DHT22;4343;53.648;10.098;2023-06-22T02:59:39;17.30;99.90
8611;DHT22;4343;53.648;10.098;2023-06-22T03:02:06;17.30;99.90
8611;DHT22;4343;53.648;10.098;2023-06-22T03:04:31;17.30;99.90
8611;DHT22;4343;53.648;10.098;2023-06-22T03:06:57;17.30;99.90
8611;DHT22;4343;53.648;10.098;2023-06-22T03:09:26;17.30;99.90
8611;DHT22;4343;53.648;10.098;2023-06-22T03:11:53;17.20;99.90
8611;DHT22;4343;53.648;10.098;2023-06-22T03:14:19;17.20;99.90
8611;DHT22;4343;53.648;10.098;2023-06-22T03:16:44;17.20;99.90
8611;DHT22;4343;53.648;10.098;2023-06-22T03:19:10;17.20;99.90
8611;DHT22;4343;53.648;10.098;2023-06-22T03:21:37;17.20;99.90
8611;DHT22;4343;53.648;10.098;2023-06-22T03:24:04;17.20;99.90
8611;DHT22;4343;53.648;10.098;2023-06-22T03:26:30;17.20;99.90
8611;DHT22;4343;53.648;10.098;2023-06-22T03:28:55;17.10;99.90
8611;DHT22;4343;53.648;10.098;2023-06-22T03:31:21;17.10;99.90
8611;DHT22;4343;53.648;10.098;2023-06-22T03:33:50;17.10;99.90
8611;DHT22;4343;53.648;10.098;2023-06-22T03:36:16;17.10;99.90
8611;DHT22;4343;53.648;10.098;2023-06-22T03:38:46;17.10;99.90
8611;DHT22;4343;53.648;10.098;2023-06-22T03:41:12;17.10;99.90
8611;DHT22;4343;53.648;10.098;2023-06-22T03:43:38;17.10;99.90
8611;DHT22;4343;53.648;10.098;2023-06-22T03:46:03;17.10;99.90
8611;DHT22;4343;53.648;10.098;2023-06-22T03:48:29;17.10;99.90
8611;DHT22;4343;53.648;10.098;2023-06-22T03:50:55;17.10;99.90
8611;DHT22;4343;53.648;10.098;2023-06-22T03:53:20;17.10;99.90
8611;DHT22;4343;53.648;10.098;2023-06-22T03:55:50;17.10;99.90
8611;DHT22;4343;53.648;10.098;2023-06-22T03:58:17;17.10;99.90
8611;DHT22;4343;53.648;10.098;2023-06-22T04:00:45;17.10;99.90
8611;DHT22;4343;53.648;10.098;2023-06-22T04:03:11;17.10;99.90
8611;DHT22;4343;53.648;10.098;2023-06-22T04:05:38;17.20;99.90
8611;DHT22;4343;53.648;10.098;2023-06-22T04:08:04;17.20;99.90
8611;DHT22;4343;53.648;10.098;2023-06-22T04:10:30;17.20;99.90
8611;DHT22;4343;53.648;10.098;2023-06-22T04:12:56;17.20;99.90
8611;DHT22;4343;53.648;10.098;2023-06-22T04:15:21;17.30;99.90
8611;DHT22;4343;53.648;10.098;2023-06-22T04:17:47;17.30;99.90
8611;DHT22;4343;53.648;10.098;2023-06-22T04:20:12;17.30;99.90
8611;DHT22;4343;53.648;10.098;2023-06-22T04:22:38;17.30;99.90
8611;DHT22;4343;53.648;10.098;2023-06-22T04:25:05;17.40;99.90
8611;DHT22;4343;53.648;10.098;2023-06-22T04:27:31;17.40;99.90
8611;DHT22;4343;53.648;10.098;2023-06-22T04:29:56;17.50;99.90
8611;DHT22;4343;53.648;10.098;2023-06-22T04:32:25;17.40;99.90
8611;DHT22;4343;53.648;10.098;2023-06-22T04:34:51;17.50;99.90
8611;DHT22;4343;53.648;10.098;2023-06-22T04:37:17;17.50;99.90
8611;DHT22;4343;53.648;10.098;2023-06-22T04:39:43;17.50;99.90
8611;DHT22;4343;53.648;10.098;2023-06-22T04:42:09;17.50;99.90
8611;DHT22;4343;53.648;10.098;2023-06-22T04:44:34;17.60;99.90
8611;DHT22;4343;53.648;10.098;2023-06-22T04:47:01;17.60;99.90
8611;DHT22;4343;53.648;10.098;2023-06-22T04:49:34;17.60;99.90
8611;DHT22;4343;53.648;10.098;2023-06-22T04:52:09;17.60;99.90
8611;DHT22;4343;53.648;10.098;2023-06-22T04:54:36;17.70;99.90
8611;DHT22;4343;53.648;10.098;2023-06-22T04:57:04;17.70;99.90
8611;DHT22;4343;53.648;10.098;2023-06-22T04:59:31;17.80;99.90
8611;DHT22;4343;53.648;10.098;2023-06-22T05:01:57;17.80;99.90
8611;DHT22;4343;53.648;10.098;2023-06-22T05:04:24;17.80;99.90
8611;DHT22;4343;53.648;10.098;2023-06-22T05:06:54;17.80;99.90
8611;DHT22;4343;53.648;10.098;2023-06-22T05:09:21;17.90;99.90
8611;DHT22;4343;53.648;10.098;2023-06-22T05:11:47;17.90;99.90
8611;DHT22;4343;53.648;10.098;2023-06-22T05:14:12;17.90;99.90
8611;DHT22;4343;53.648;10.098;2023-06-22T05:16:38;18.00;99.90
8611;DHT22;4343;53.648;10.098;2023-06-22T05:19:04;18.00;99.90
8611;DHT22;4343;53.648;10.098;2023-06-22T05:21:30;18.10;99.90
8611;DHT22;4343;53.648;10.098;2023-06-22T05:23:56;18.10;99.90
8611;DHT22;4343;53.648;10.098;2023-06-22T05:26:27;18.20;99.90
8611;DHT22;4343;53.648;10.098;2023-06-22T05:28:53;18.30;99.90
8611;DHT22;4343;53.648;10.098;2023-06-22T05:31:19;18.30;99.90
8611;DHT22;4343;53.648;10.098;2023-06-22T05:33:46;18.40;99.90
8611;DHT22;4343;53.648;10.098;2023-06-22T05:36:12;18.50;99.90
8611;DHT22;4343;53.648;10.098;2023-06-22T05:38:41;18.50;99.90
8611;DHT22;4343;53.648;10.098;2023-06-22T05:41:07;18.60;99.90
8611;DHT22;4343;53.648;10.098;2023-06-22T05:43:32;18.70;99.90
8611;DHT22;4343;53.648;10.098;2023-06-22T05:45:59;18.80;99.90
8611;DHT22;4343;53.648;10.098;2023-06-22T05:48:25;18.90;99.90
8611;DHT22;4343;53.648;10.098;2023-06-22T05:50:50;19.00;99.90
8611;DHT22;4343;53.648;10.098;2023-06-22T05:53:16;19.00;99.90
8611;DHT22;4343;53.648;10.098;2023-06-22T05:55:41;19.10;99.90
8611;DHT22;4343;53.648;10.098;2023-06-22T05:58:08;19.20;99.90
8611;DHT22;4343;53.648;10.098;2023-06-22T06:00:33;19.30;99.90
8611;DHT22;4343;53.648;10.098;2023-06-22T06:02:59;19.40;99.90
8611;DHT22;4343;53.648;10.098;2023-06-22T06:05:32;19.50;99.90
8611;DHT22;4343;53.648;10.098;2023-06-22T06:08:00;19.60;99.90
8611;DHT22;4343;53.648;10.098;2023-06-22T06:10:25;19.80;99.90
8611;DHT22;4343;53.648;10.098;2023-06-22T06:12:52;19.90;99.90
8611;DHT22;4343;53.648;10.098;2023-06-22T06:15:17;20.00;99.90
8611;DHT22;4343;53.648;10.098;2023-06-22T06:17:53;20.10;99.90
8611;DHT22;4343;53.648;10.098;2023-06-22T06:20:23;20.20;99.90
8611;DHT22;4343;53.648;10.098;2023-06-22T06:22:49;20.30;99.90
8611;DHT22;4343;53.648;10.098;2023-06-22T06:25:15;20.50;99.90
8611;DHT22;4343;53.648;10.098;2023-06-22T06:27:42;20.60;99.90
8611;DHT22;4343;53.648;10.098;2023-06-22T06:30:09;20.70;99.90
8611;DHT22;4343;53.648;10.098;2023-06-22T06:32:36;20.80;99.90
8611;DHT22;4343;53.648;10.098;2023-06-22T06:35:01;21.00;99.90
8611;DHT22;4343;53.648;10.098;2023-06-22T06:37:27;21.10;99.90
8611;DHT22;4343;53.648;10.098;2023-06-22T06:39:53;21.20;99.90
8611;DHT22;4343;53.648;10.098;2023-06-22T06:42:18;21.30;99.90
8611;DHT22;4343;53.648;10.098;2023-06-22T06:44:45;21.40;99.90
8611;DHT22;4343;53.648;10.098;2023-06-22T06:47:11;21.40;99.90
8611;DHT22;4343;53.648;10.098;2023-06-22T06:49:36;21.40;99.90
8611;DHT22;4343;53.648;10.098;2023-06-22T06:52:02;21.40;99.90
8611;DHT22;4343;53.648;10.098;2023-06-22T06:54:27;21.40;99.90
8611;DHT22;4343;53.648;10.098;2023-06-22T06:56:53;21.40;99.90
8611;DHT22;4343;53.648;10.098;2023-06-22T06:59:18;21.30;99.90
8611;DHT22;4343;53.648;10.098;2023-06-22T07:01:44;21.40;99.90
8611;DHT22;4343;53.648;10.098;2023-06-22T07:04:10;21.30;99.90
8611;DHT22;4343;53.648;10.098;2023-06-22T07:06:35;21.30;99.90
8611;DHT22;4343;53.648;10.098;2023-06-22T07:09:01;21.40;99.90
8611;DHT22;4343;53.648;10.098;2023-06-22T07:11:27;21.40;99.90
8611;DHT22;4343;53.648;10.098;2023-06-22T07:13:53;21.40;99.90
8611;DHT22;4343;53.648;10.098;2023-06-22T07:16:18;21.50;99.90
8611;DHT22;4343;53.648;10.098;2023-06-22T07:18:44;21.60;99.90
8611;DHT22;4343;53.648;10.098;2023-06-22T07:21:09;21.80;99.90
8611;DHT22;4343;53.648;10.098;2023-06-22T07:23:35;21.80;99.90
8611;DHT22;4343;53.648;10.098;2023-06-22T07:26:00;21.90;99.90
8611;DHT22;4343;53.648;10.098;2023-06-22T07:28:31;22.00;99.90
8611;DHT22;4343;53.648;10.098;2023-06-22T07:31:02;22.10;99.90
8611;DHT22;4343;53.648;10.098;2023-06-22T07:33:29;22.10;99.90
8611;DHT22;4343;53.648;10.098;2023-06-22T07:35:54;22.20;99.90
8611;DHT22;4343;53.648;10.098;2023-06-22T07:38:20;22.30;99.90
8611;DHT22;4343;53.648;10.098;2023-06-22T07:40:45;22.30;99.90
8611;DHT22;4343;53.648;10.098;2023-06-22T07:43:11;22.40;99.90
8611;DHT22;4343;53.648;10.098;2023-06-22T07:45:38;22.50;99.90
8611;DHT22;4343;53.648;10.098;2023-06-22T07:48:05;22.50;99.90
8611;DHT22;4343;53.648;10.098;2023-06-22T07:50:30;22.60;99.90
8611;DHT22;4343;53.648;10.098;2023-06-22T07:52:56;22.60;99.90
8611;DHT22;4343;53.648;10.098;2023-06-22T07:55:22;22.60;99.90
8611;DHT22;4343;53.648;10.098;2023-06-22T07:57:49;22.60;99.90
8611;DHT22;4343;53.648;10.098;2023-06-22T08:00:14;22.60;99.90
8611;DHT22;4343;53.648;10.098;2023-06-22T08:02:42;22.70;99.90
8611;DHT22;4343;53.648;10.098;2023-06-22T08:05:09;22.80;99.90
8611;DHT22;4343;53.648;10.098;2023-06-22T08:07:35;22.90;99.90
8611;DHT22;4343;53.648;10.098;2023-06-22T08:10:03;22.90;99.90
8611;DHT22;4343;53.648;10.098;2023-06-22T08:12:29;23.00;99.90
8611;DHT22;4343;53.648;10.098;2023-06-22T08:14:55;23.10;99.90
8611;DHT22;4343;53.648;10.098;2023-06-22T08:17:25;23.10;99.90
8611;DHT22;4343;53.648;10.098;2023-06-22T08:19:50;23.20;99.90
8611;DHT22;4343;53.648;10.098;2023-06-22T08:22:16;23.30;99.90
8611;DHT22;4343;53.648;10.098;2023-06-22T08:24:42;23.40;99.90
8611;DHT22;4343;53.648;10.098;2023-06-22T08:27:07;23.60;99.90
8611;DHT22;4343;53.648;10.098;2023-06-22T08:29:41;23.80;99.90
8611;DHT22;4343;53.648;10.098;2023-06-22T08:32:11;23.90;99.90
8611;DHT22;4343;53.648;10.098;2023-06-22T08:34:37;24.10;99.90
8611;DHT22;4343;53.648;10.098;2023-06-22T08:37:10;24.30;99.90
8611;DHT22;4343;53.648;10.098;2023-06-22T08:39:36;24.50;99.90
8611;DHT22;4343;53.648;10.098;2023-06-22T08:42:01;24.60;99.90
8611;DHT22;4343;53.648;10.098;2023-06-22T08:44:27;24.80;99.90
8611;DHT22;4343;53.648;10.098;2023-06-22T08:46:52;24.90;99.90
8611;DHT22;4343;53.648;10.098;2023-06-22T08:49:18;25.10;99.90
8611;DHT22;4343;53.648;10.098;2023-06-22T08:51:43;25.20;99.90
8611;DHT22;4343;53.648;10.098;2023-06-22T08:54:11;25.40;99.90
8611;DHT22;4343;53.648;10.098;2023-06-22T08:56:36;25.60;99.90
8611;DHT22;4343;53.648;10.098;2023-06-22T08:59:02;25.70;99.90
8611;DHT22;4343;53.648;10.098;2023-06-22T09:01:27;25.80;99.90
8611;DHT22;4343;53.648;10.098;2023-06-22T09:03:53;25.90;99.90
8611;DHT22;4343;53.648;10.098;2023-06-22T09:06:23;26.00;99.90
8611;DHT22;4343;53.648;10.098;2023-06-22T09:08:49;26.00;99.90
8611;DHT22;4343;53.648;10.098;2023-06-22T09:11:15;26.10;99.90
8611;DHT22;4343;53.648;10.098;2023-06-22T09:13:40;26.30;99.90
8611;DHT22;4343;53.648;10.098;2023-06-22T09:16:06;26.40;99.90
8611;DHT22;4343;53.648;10.098;2023-06-22T09:18:32;26.50;99.90
8611;DHT22;4343;53.648;10.098;2023-06-22T09:20:57;26.70;99.90
8611;DHT22;4343;53.648;10.098;2023-06-22T09:23:23;26.70;99.90
8611;DHT22;4343;53.648;10.098;2023-06-22T09:25:48;26.90;99.90
8611;DHT22;4343;53.648;10.098;2023-06-22T09:28:14;27.00;99.90
8611;DHT22;4343;53.648;10.098;2023-06-22T09:30:40;27.00;99.90
8611;DHT22;4343;53.648;10.098;2023-06-22T09:33:06;27.20;99.90
8611;DHT22;4343;53.648;10.098;2023-06-22T09:35:31;27.30;99.90
8611;DHT22;4343;53.648;10.098;2023-06-22T09:37:57;27.40;99.90
8611;DHT22;4343;53.648;10.098;2023-06-22T09:40:22;27.50;99.90
8611;DHT22;4343;53.648;10.098;2023-06-22T09:42:48;27.70;99.90
8611;DHT22;4343;53.648;10.098;2023-06-22T09:45:13;27.80;99.90
8611;DHT22;4343;53.648;10.098;2023-06-22T09:47:39;27.90;99.90
8611;DHT22;4343;53.648;10.098;2023-06-22T09:50:05;27.90;99.90
8611;DHT22;4343;53.648;10.098;2023-06-22T09:52:31;28.00;99.90
8611;DHT22;4343;53.648;10.098;2023-06-22T09:54:56;28.10;99.90
8611;DHT22;4343;53.648;10.098;2023-06-22T09:57:22;28.20;99.90
8611;DHT22;4343;53.648;10.098;2023-06-22T09:59:47;28.30;99.90
8611;DHT22;4343;53.648;10.098;2023-06-22T10:02:13;28.40;99.90
8611;DHT22;4343;53.648;10.098;2023-06-22T10:04:39;28.50;99.90
8611;DHT22;4343;53.648;10.098;2023-06-22T10:07:05;28.60;99.90
8611;DHT22;4343;53.648;10.098;2023-06-22T10:09:31;28.70;99.90
8611;DHT22;4343;53.648;10.098;2023-06-22T10:11:57;28.80;99.70
8611;DHT22;4343;53.648;10.098;2023-06-22T10:14:22;29.00;99.40
8611;DHT22;4343;53.648;10.098;2023-06-22T10:16:48;29.10;99.30
8611;DHT22;4343;53.648;10.098;2023-06-22T10:19:13;29.30;99.30
8611;DHT22;4343;53.648;10.098;2023-06-22T10:21:39;29.40;99.10
8611;DHT22;4343;53.648;10.098;2023-06-22T10:24:05;29.50;98.90
8611;DHT22;4343;53.648;10.098;2023-06-22T10:26:34;29.50;98.70
8611;DHT22;4343;53.648;10.098;2023-06-22T10:29:04;29.50;98.60
8611;DHT22;4343;53.648;10.098;2023-06-22T10:31:29;29.50;98.60
8611;DHT22;4343;53.648;10.098;2023-06-22T10:33:55;29.40;98.70
8611;DHT22;4343;53.648;10.098;2023-06-22T10:36:22;29.50;98.50
8611;DHT22;4343;53.648;10.098;2023-06-22T10:38:48;29.50;98.50
8611;DHT22;4343;53.648;10.098;2023-06-22T10:41:13;29.60;98.50
8611;DHT22;4343;53.648;10.098;2023-06-22T10:43:39;29.60;98.10
8611;DHT22;4343;53.648;10.098;2023-06-22T10:46:07;29.60;97.90
8611;DHT22;4343;53.648;10.098;2023-06-22T10:48:32;29.70;98.20
8611;DHT22;4343;53.648;10.098;2023-06-22T10:50:58;29.80;98.50
8611;DHT22;4343;53.648;10.098;2023-06-22T10:53:23;29.90;98.30
8611;DHT22;4343;53.648;10.098;2023-06-22T10:55:49;30.00;97.30
8611;DHT22;4343;53.648;10.098;2023-06-22T10:58:15;30.10;97.70
8611;DHT22;4343;53.648;10.098;2023-06-22T11:00:40;30.20;97.80
8611;DHT22;4343;53.648;10.098;2023-06-22T11:03:06;30.40;97.90
8611;DHT22;4343;53.648;10.098;2023-06-22T11:05:31;30.40;97.70
8611;DHT22;4343;53.648;10.098;2023-06-22T11:07:57;30.60;97.50
8611;DHT22;4343;53.648;10.098;2023-06-22T11:10:23;30.70;97.30
8611;DHT22;4343;53.648;10.098;2023-06-22T11:12:48;30.70;96.80
8611;DHT22;4343;53.648;10.098;2023-06-22T11:15:14;30.70;96.40
8611;DHT22;4343;53.648;10.098;2023-06-22T11:17:39;30.80;96.20
8611;DHT22;4343;53.648;10.098;2023-06-22T11:20:05;30.80;96.20
8611;DHT22;4343;53.648;10.098;2023-06-22T11:22:39;30.90;96.00
8611;DHT22;4343;53.648;10.098;2023-06-22T11:25:05;31.00;96.20
8611;DHT22;4343;53.648;10.098;2023-06-22T11:27:31;31.10;95.90
8611;DHT22;4343;53.648;10.098;2023-06-22T11:29:57;31.20;95.70
8611;DHT22;4343;53.648;10.098;2023-06-22T11:32:23;31.30;95.20
8611;DHT22;4343;53.648;10.098;2023-06-22T11:34:48;31.30;95.50
8611;DHT22;4343;53.648;10.098;2023-06-22T11:37:14;31.40;95.60
8611;DHT22;4343;53.648;10.098;2023-06-22T11:39:40;31.50;95.70
8611;DHT22;4343;53.648;10.098;2023-06-22T11:42:06;31.60;95.10
8611;DHT22;4343;53.648;10.098;2023-06-22T11:44:32;31.60;95.10
8611;DHT22;4343;53.648;10.098;2023-06-22T11:46:57;31.60;95.30
8611;DHT22;4343;53.648;10.098;2023-06-22T11:49:23;31.60;95.30
8611;DHT22;4343;53.648;10.098;2023-06-22T11:51:48;31.60;95.10
8611;DHT22;4343;53.648;10.098;2023-06-22T11:54:14;31.50;94.50
8611;DHT22;4343;53.648;10.098;2023-06-22T11:56:39;31.40;94.60
8611;DHT22;4343;53.648;10.098;2023-06-22T11:59:05;31.30;94.20
8611;DHT22;4343;53.648;10.098;2023-06-22T12:01:30;31.20;94.50
8611;DHT22;4343;53.648;10.098;2023-06-22T12:03:58;31.10;94.80
8611;DHT22;4343;53.648;10.098;2023-06-22T12:06:23;31.00;94.80
8611;DHT22;4343;53.648;10.098;2023-06-22T12:08:49;30.90;94.90
8611;DHT22;4343;53.648;10.098;2023-06-22T12:11:14;30.80;95.10
8611;DHT22;4343;53.648;10.098;2023-06-22T12:13:40;30.70;95.10
8611;DHT22;4343;53.648;10.098;2023-06-22T12:16:05;30.60;95.00
8611;DHT22;4343;53.648;10.098;2023-06-22T12:18:32;30.60;95.10
8611;DHT22;4343;53.648;10.098;2023-06-22T12:20:58;30.50;95.30
8611;DHT22;4343;53.648;10.098;2023-06-22T12:23:23;30.40;95.70
8611;DHT22;4343;53.648;10.098;2023-06-22T12:25:49;30.40;95.30
8611;DHT22;4343;53.648;10.098;2023-06-22T12:28:14;30.40;95.40
8611;DHT22;4343;53.648;10.098;2023-06-22T12:30:40;30.40;95.20
8611;DHT22;4343;53.648;10.098;2023-06-22T12:33:05;30.30;95.20
8611;DHT22;4343;53.648;10.098;2023-06-22T12:35:31;30.30;95.60
8611;DHT22;4343;53.648;10.098;2023-06-22T12:37:56;30.40;96.00
8611;DHT22;4343;53.648;10.098;2023-06-22T12:40:22;30.40;96.00
8611;DHT22;4343;53.648;10.098;2023-06-22T12:42:47;30.60;95.90
8611;DHT22;4343;53.648;10.098;2023-06-22T12:45:13;30.60;95.70
8611;DHT22;4343;53.648;10.098;2023-06-22T12:47:39;30.70;95.60
8611;DHT22;4343;53.648;10.098;2023-06-22T12:50:05;30.80;95.40
8611;DHT22;4343;53.648;10.098;2023-06-22T12:52:30;30.80;94.30
8611;DHT22;4343;53.648;10.098;2023-06-22T12:54:59;30.70;94.60
8611;DHT22;4343;53.648;10.098;2023-06-22T12:57:25;30.70;94.80
8611;DHT22;4343;53.648;10.098;2023-06-22T12:59:50;30.80;95.10
8611;DHT22;4343;53.648;10.098;2023-06-22T13:02:16;30.90;95.10
8611;DHT22;4343;53.648;10.098;2023-06-22T13:04:41;31.00;95.20
8611;DHT22;4343;53.648;10.098;2023-06-22T13:07:08;31.10;95.00
8611;DHT22;4343;53.648;10.098;2023-06-22T13:09:36;31.30;94.90
8611;DHT22;4343;53.648;10.098;2023-06-22T13:12:01;31.40;94.80
8611;DHT22;4343;53.648;10.098;2023-06-22T13:14:27;31.60;94.90
8611;DHT22;4343;53.648;10.098;2023-06-22T13:16:53;31.70;95.30
8611;DHT22;4343;53.648;10.098;2023-06-22T13:19:18;31.90;94.70
8611;DHT22;4343;53.648;10.098;2023-06-22T13:21:44;32.10;94.60
8611;DHT22;4343;53.648;10.098;2023-06-22T13:24:09;32.20;94.10
8611;DHT22;4343;53.648;10.098;2023-06-22T13:26:35;32.30;93.90
8611;DHT22;4343;53.648;10.098;2023-06-22T13:29:00;32.40;93.60
8611;DHT22;4343;53.648;10.098;2023-06-22T13:31:26;32.20;93.40
8611;DHT22;4343;53.648;10.098;2023-06-22T13:33:51;32.20;93.20
8611;DHT22;4343;53.648;10.098;2023-06-22T13:36:18;32.20;93.10
8611;DHT22;4343;53.648;10.098;2023-06-22T13:38:43;32.30;93.10
8611;DHT22;4343;53.648;10.098;2023-06-22T13:41:09;32.30;92.90
8611;DHT22;4343;53.648;10.098;2023-06-22T13:43:34;32.20;92.70
8611;DHT22;4343;53.648;10.098;2023-06-22T13:46:00;32.00;92.60
8611;DHT22;4343;53.648;10.098;2023-06-22T13:48:25;31.80;92.60
8611;DHT22;4343;53.648;10.098;2023-06-22T13:50:52;31.60;93.00
8611;DHT22;4343;53.648;10.098;2023-06-22T13:53:17;31.40;93.10
8611;DHT22;4343;53.648;10.098;2023-06-22T13:55:43;31.20;93.30
8611;DHT22;4343;53.648;10.098;2023-06-22T13:58:08;30.90;93.20
8611;DHT22;4343;53.648;10.098;2023-06-22T14:00:34;30.70;93.60
8611;DHT22;4343;53.648;10.098;2023-06-22T14:02:59;30.40;93.80
8611;DHT22;4343;53.648;10.098;2023-06-22T14:05:25;30.30;94.30
8611;DHT22;4343;53.648;10.098;2023-06-22T14:07:50;30.20;94.60
8611;DHT22;4343;53.648;10.098;2023-06-22T14:10:16;30.10;94.90
8611;DHT22;4343;53.648;10.098;2023-06-22T14:12:41;30.10;95.50
8611;DHT22;4343;53.648;10.098;2023-06-22T14:15:07;30.00;95.20
8611;DHT22;4343;53.648;10.098;2023-06-22T14:17:33;30.10;95.30
8611;DHT22;4343;53.648;10.098;2023-06-22T14:19:58;30.10;95.20
8611;DHT22;4343;53.648;10.098;2023-06-22T14:22:24;30.10;94.70
8611;DHT22;4343;53.648;10.098;2023-06-22T14:24:49;30.10;94.50
8611;DHT22;4343;53.648;10.098;2023-06-22T14:27:15;30.10;94.60
8611;DHT22;4343;53.648;10.098;2023-06-22T14:29:41;30.00;94.70
8611;DHT22;4343;53.648;10.098;2023-06-22T14:32:08;30.00;94.70
8611;DHT22;4343;53.648;10.098;2023-06-22T14:34:34;29.80;94.80
8611;DHT22;4343;53.648;10.098;2023-06-22T14:37:02;29.70;94.80
8611;DHT22;4343;53.648;10.098;2023-06-22T14:39:27;29.60;95.00
8611;DHT22;4343;53.648;10.098;2023-06-22T14:41:53;29.50;95.20
8611;DHT22;4343;53.648;10.098;2023-06-22T14:44:19;29.50;95.30
8611;DHT22;4343;53.648;10.098;2023-06-22T14:46:44;29.30;95.30
8611;DHT22;4343;53.648;10.098;2023-06-22T14:49:10;29.20;95.60
8611;DHT22;4343;53.648;10.098;2023-06-22T14:51:35;29.10;95.60
8611;DHT22;4343;53.648;10.098;2023-06-22T14:54:01;29.00;95.50
8611;DHT22;4343;53.648;10.098;2023-06-22T14:56:26;28.90;95.50
8611;DHT22;4343;53.648;10.098;2023-06-22T14:58:52;28.70;96.00
8611;DHT22;4343;53.648;10.098;2023-06-22T15:01:17;28.60;96.20
8611;DHT22;4343;53.648;10.098;2023-06-22T15:03:43;28.40;96.50
8611;DHT22;4343;53.648;10.098;2023-06-22T15:06:09;28.10;96.70
8611;DHT22;4343;53.648;10.098;2023-06-22T15:08:37;27.80;97.00
8611;DHT22;4343;53.648;10.098;2023-06-22T15:11:03;27.60;97.80
8611;DHT22;4343;53.648;10.098;2023-06-22T15:13:31;27.40;97.80
8611;DHT22;4343;53.648;10.098;2023-06-22T15:16:00;27.10;98.10
8611;DHT22;4343;53.648;10.098;2023-06-22T15:18:27;27.10;98.50
8611;DHT22;4343;53.648;10.098;2023-06-22T15:20:53;27.00;98.70
8611;DHT22;4343;53.648;10.098;2023-06-22T15:23:19;27.10;98.80
8611;DHT22;4343;53.648;10.098;2023-06-22T15:25:44;27.00;98.80
8611;DHT22;4343;53.648;10.098;2023-06-22T15:28:11;27.00;98.90
8611;DHT22;4343;53.648;10.098;2023-06-22T15:30:37;27.00;99.00
8611;DHT22;4343;53.648;10.098;2023-06-22T15:33:02;27.10;99.10
8611;DHT22;4343;53.648;10.098;2023-06-22T15:35:28;27.10;99.20
8611;DHT22;4343;53.648;10.098;2023-06-22T15:37:54;27.00;99.10
8611;DHT22;4343;53.648;10.098;2023-06-22T15:40:19;27.00;99.20
8611;DHT22;4343;53.648;10.098;2023-06-22T15:42:45;27.00;99.40
8611;DHT22;4343;53.648;10.098;2023-06-22T15:45:12;26.90;99.40
8611;DHT22;4343;53.648;10.098;2023-06-22T15:47:38;26.90;99.40